Time;durP1;ratioP1;P1;durP2;ratioP2;P2;SDS_P1;SDS_P2;PMS_P1;PMS_P2;Temp;Humidity;BMP_temperature;BMP_pressure;BME280_temperature;BME280_humidity;BME280_pressure;Samples;Min_cycle;Max_cycle;Signal;HPM_P1;HPM_P2
2023/02/17 00:01:40;;;;;;;7.63;5.90;;;;;;;7.65;100.00;100673.75;4972163;28;20193;-76
2023/02/17 00:04:05;;;;;;;12.27;11.17;;;;;;;7.67;100.00;100660.72;4971898;28;20181;-76
2023/02/17 00:06:31;;;;;;;2.97;2.43;;;;;;;7.65;100.00;100663.69;4972122;28;20177;-74
2023/02/17 00:08:58;;;;;;;13.03;11.73;;;;;;;7.63;100.00;100668.59;4970766;28;20281;-76
2023/02/17 00:11:23;;;;;;;11.43;9.73;;;;;;;7.61;100.00;100662.66;4971938;28;20188;-76
2023/02/17 00:13:51;;;;;;;7.20;6.23;;;;;;;7.62;100.00;100664.28;4971708;28;20178;-75
2023/02/17 00:16:18;;;;;;;12.70;11.50;;;;;;;7.62;100.00;100650.69;4971728;28;20208;-75
2023/02/17 00:18:45;;;;;;;10.60;9.40;;;;;;;7.62;100.00;100653.41;4971951;28;20245;-74
2023/02/17 00:21:16;;;;;;;11.43;9.37;;;;;;;7.66;100.00;100659.88;4970625;28;20565;-75
2023/02/17 00:23:41;;;;;;;10.23;9.27;;;;;;;7.68;100.00;100646.81;4971502;28;20625;-76
2023/02/17 00:26:07;;;;;;;10.93;9.43;;;;;;;7.68;100.00;100652.25;4972204;28;20185;-76
2023/02/17 00:28:33;;;;;;;10.57;9.67;;;;;;;7.71;100.00;100648.16;4971774;28;20253;-75
2023/02/17 00:30:58;;;;;;;16.07;8.13;;;;;;;7.71;100.00;100643.53;4971692;28;20268;-76
2023/02/17 00:33:23;;;;;;;9.13;8.40;;;;;;;7.72;100.00;100641.63;4970367;28;20178;-76
2023/02/17 00:35:49;;;;;;;6.60;5.03;;;;;;;7.71;100.00;100640.00;4971302;28;20624;-76
2023/02/17 00:38:14;;;;;;;13.07;9.97;;;;;;;7.70;100.00;100639.19;4971724;28;20192;-76
2023/02/17 00:40:40;;;;;;;8.07;7.27;;;;;;;7.70;100.00;100635.66;4971656;28;20178;-77
2023/02/17 00:43:05;;;;;;;12.20;10.70;;;;;;;7.69;100.00;100645.72;4971571;28;20224;-75
2023/02/17 00:45:31;;;;;;;12.40;8.73;;;;;;;7.68;100.00;100630.50;4971203;28;20185;-76
2023/02/17 00:47:56;;;;;;;10.63;9.53;;;;;;;7.70;100.00;100630.22;4970378;28;20551;-77
2023/02/17 00:50:21;;;;;;;5.37;4.87;;;;;;;7.67;100.00;100626.19;4971970;28;20195;-75
2023/02/17 00:52:47;;;;;;;3.60;3.33;;;;;;;7.64;100.00;100625.91;4971532;28;20554;-77
2023/02/17 00:55:12;;;;;;;3.37;3.07;;;;;;;7.67;100.00;100628.09;4971219;28;20292;-76
2023/02/17 00:57:37;;;;;;;12.33;10.73;;;;;;;7.69;100.00;100632.13;4971513;28;20656;-77
2023/02/17 01:00:04;;;;;;;10.00;9.03;;;;;;;7.69;100.00;100626.69;4971371;28;20264;-76
2023/02/17 01:02:29;;;;;;;8.53;6.97;;;;;;;7.70;100.00;100628.31;4971432;28;20536;-76
2023/02/17 01:04:55;;;;;;;6.37;5.87;;;;;;;7.72;100.00;100626.09;4971361;28;20264;-76
2023/02/17 01:07:20;;;;;;;9.70;8.57;;;;;;;7.77;100.00;100625.25;4971322;28;20182;-75
2023/02/17 01:09:45;;;;;;;11.13;7.33;;;;;;;7.80;100.00;100615.69;4971406;28;20185;-76
2023/02/17 01:12:11;;;;;;;12.83;11.73;;;;;;;7.82;100.00;100606.16;4971399;28;20182;-75
2023/02/17 01:14:37;;;;;;;7.37;6.67;;;;;;;7.82;100.00;100617.03;4970935;28;20534;-76
2023/02/17 01:17:02;;;;;;;13.10;9.97;;;;;;;7.83;100.00;100612.41;4971251;28;20296;-73
2023/02/17 01:19:27;;;;;;;11.53;8.77;;;;;;;7.83;100.00;100620.56;4971207;28;20256;-75
2023/02/17 01:21:53;;;;;;;9.17;7.23;;;;;;;7.84;100.00;100617.56;4972334;28;20257;-76
2023/02/17 01:24:18;;;;;;;6.90;6.17;;;;;;;7.85;100.00;100602.06;4974810;28;20182;-76
2023/02/17 01:26:43;;;;;;;10.40;6.67;;;;;;;7.86;100.00;100604.47;4975150;28;20213;-76
2023/02/17 01:29:09;;;;;;;5.43;4.97;;;;;;;7.86;100.00;100600.94;4974867;28;20265;-74
2023/02/17 01:31:34;;;;;;;8.77;5.53;;;;;;;7.87;100.00;100605.28;4974927;28;20186;-76
2023/02/17 01:34:01;;;;;;;10.37;9.47;;;;;;;7.90;100.00;100605.50;4974517;28;20217;-77
2023/02/17 01:36:27;;;;;;;7.63;7.03;;;;;;;7.91;100.00;100606.31;4974911;28;20217;-76
2023/02/17 01:38:52;;;;;;;10.20;6.93;;;;;;;7.91;100.00;100595.44;4974875;28;20559;-76
2023/02/17 01:41:20;;;;;;;9.27;8.37;;;;;;;7.92;100.00;100594.34;4974793;28;20178;-77
2023/02/17 01:44:04;;;;;;;6.77;5.20;;;;;;;7.95;100.00;100582.88;4974223;28;20637;-74
2023/02/17 01:46:34;;;;;;;8.40;7.60;;;;;;;7.92;100.00;100589.72;4974743;28;20177;-75
2023/02/17 01:49:03;;;;;;;10.27;9.23;;;;;;;7.93;100.00;100571.47;4974640;28;20190;-77
2023/02/17 01:51:34;;;;;;;6.37;5.77;;;;;;;7.94;100.00;100573.91;4975096;28;20170;-76
2023/02/17 01:54:08;;;;;;;7.10;6.50;;;;;;;7.97;100.00;100567.91;4974276;28;20182;-76
2023/02/17 01:56:37;;;;;;;8.50;7.00;;;;;;;8.01;100.00;100554.53;4974441;28;20296;-74
2023/02/17 01:59:09;;;;;;;5.23;4.73;;;;;;;8.02;100.00;100532.47;4974409;28;20189;-72
2023/02/17 02:01:34;;;;;;;6.93;3.77;;;;;;;8.02;100.00;100537.91;4974853;28;20308;-72
2023/02/17 02:04:03;;;;;;;7.53;6.80;;;;;;;8.03;100.00;100531.34;4974108;28;20189;-70
2023/02/17 02:06:32;;;;;;;7.13;6.43;;;;;;;8.03;100.00;100527.81;4974267;28;20642;-72
2023/02/17 02:09:14;;;;;;;10.13;9.00;;;;;;;8.07;100.00;100515.25;4974195;28;20182;-70
2023/02/17 02:11:40;;;;;;;8.07;7.40;;;;;;;8.08;100.00;100514.13;4974289;28;20177;-72
2023/02/17 02:14:07;;;;;;;6.07;5.50;;;;;;;8.07;100.00;100512.53;4974132;28;20181;-76
2023/02/17 02:16:51;;;;;;;10.43;9.43;;;;;;;8.10;100.00;100517.41;4974110;28;20231;-72
2023/02/17 02:20:01;;;;;;;7.93;7.23;;;;;;;8.14;100.00;100513.00;4973944;28;20537;-74
2023/02/17 02:22:50;;;;;;;5.27;4.77;;;;;;;8.21;100.00;100518.06;4965442;28;20643;-71
2023/02/17 02:25:24;;;;;;;10.20;9.07;;;;;;;8.23;100.00;100510.41;4973736;28;20693;-72
2023/02/17 02:28:11;;;;;;;7.93;7.23;;;;;;;8.25;100.00;100514.47;4973976;28;20178;-71
2023/02/17 02:30:46;;;;;;;6.13;5.63;;;;;;;8.26;100.00;100520.72;4973998;28;20348;-72
2023/02/17 02:33:28;;;;;;;10.10;7.13;;;;;;;8.24;100.00;100510.09;4972677;28;20177;-75
2023/02/17 02:36:18;;;;;;;7.87;7.20;;;;;;;8.24;100.00;100501.94;4973347;28;20221;-73
2023/02/17 02:39:03;;;;;;;9.70;8.80;;;;;;;8.24;100.00;100512.81;4974050;28;20237;-72
2023/02/17 02:41:36;;;;;;;11.37;10.27;;;;;;;8.25;100.00;100517.19;4974108;28;20629;-72
2023/02/17 02:44:07;;;;;;;10.63;9.07;;;;;;;8.26;100.00;100505.19;4973426;28;20193;-70
2023/02/17 02:46:32;;;;;;;8.47;7.83;;;;;;;8.26;100.00;100504.41;4973582;28;20732;-73
2023/02/17 02:48:59;;;;;;;11.50;10.43;;;;;;;8.28;100.00;100500.28;4973600;28;20186;-76
2023/02/17 02:51:30;;;;;;;6.70;6.10;;;;;;;8.28;100.00;100497.53;4973493;28;20630;-76
2023/02/17 02:54:11;;;;;;;11.60;10.53;;;;;;;8.31;100.00;100491.50;4973528;28;20181;-75
2023/02/17 02:56:48;;;;;;;10.57;9.57;;;;;;;8.34;100.00;100492.84;4972102;28;20584;-77
2023/02/17 02:59:37;;;;;;;6.90;6.40;;;;;;;8.35;100.00;100487.13;4973361;28;20173;-76
2023/02/17 03:02:17;;;;;;;5.70;5.13;;;;;;;8.37;100.00;100488.72;4973379;28;20165;-74
2023/02/17 03:05:01;;;;;;;12.57;11.47;;;;;;;8.39;100.00;100481.06;4972809;28;20182;-76
2023/02/17 03:07:32;;;;;;;8.17;7.43;;;;;;;8.40;100.00;100466.38;4973500;28;20580;-76
2023/02/17 03:09:59;;;;;;;6.47;5.97;;;;;;;8.45;100.00;100466.28;4973221;28;20178;-75
2023/02/17 03:12:26;;;;;;;9.43;8.53;;;;;;;8.45;100.00;100461.66;4973145;28;20201;-76
2023/02/17 03:14:55;;;;;;;8.27;7.53;;;;;;;8.49;100.00;100461.88;4972642;28;20209;-74
2023/02/17 03:17:21;;;;;;;7.57;7.00;;;;;;;8.47;100.00;100448.56;4973001;28;20182;-74
2023/02/17 03:19:46;;;;;;;7.60;6.57;;;;;;;8.48;100.00;100462.97;4972940;28;20237;-76
2023/02/17 03:22:22;;;;;;;5.10;4.67;;;;;;;8.50;100.00;100461.56;4972986;28;20573;-75
2023/02/17 03:24:47;;;;;;;9.40;8.47;;;;;;;8.52;100.00;100459.34;4972613;28;20186;-76
2023/02/17 03:27:12;;;;;;;9.93;9.13;;;;;;;8.52;100.00;100453.09;4972820;28;20581;-74
2023/02/17 03:29:38;;;;;;;9.70;8.97;;;;;;;8.55;100.00;100458.78;4972848;28;20182;-73
2023/02/17 03:32:04;;;;;;;4.73;4.43;;;;;;;8.57;100.00;100455.75;4972545;28;20186;-76
2023/02/17 03:34:29;;;;;;;1.53;1.43;;;;;;;8.58;100.00;100451.91;4972570;28;20197;-76
2023/02/17 03:36:54;;;;;;;10.57;9.47;;;;;;;8.56;100.00;100454.13;4972574;28;20217;-73
2023/02/17 03:39:20;;;;;;;10.50;9.20;;;;;;;8.54;100.00;100451.72;4972663;28;20184;-76
2023/02/17 03:41:45;;;;;;;7.60;7.00;;;;;;;8.56;100.00;100456.88;4972748;28;20177;-76
2023/02/17 03:44:10;;;;;;;8.47;7.33;;;;;;;8.58;100.00;100449.19;4971946;28;20558;-76
2023/02/17 03:46:38;;;;;;;7.13;6.43;;;;;;;8.59;100.00;100446.19;4972392;28;20198;-76
2023/02/17 03:49:03;;;;;;;6.87;6.33;;;;;;;8.60;100.00;100445.06;4972463;28;20281;-76
2023/02/17 03:51:29;;;;;;;7.87;7.27;;;;;;;8.61;100.00;100460.28;4972575;28;20670;-76
2023/02/17 03:53:55;;;;;;;8.47;7.77;;;;;;;8.62;100.00;100447.50;4972200;28;20177;-76
2023/02/17 03:56:20;;;;;;;10.50;5.67;;;;;;;8.63;100.00;100446.38;4972376;28;20264;-75
2023/02/17 03:58:46;;;;;;;10.00;7.73;;;;;;;8.64;100.00;100437.09;4972265;28;20649;-76
2023/02/17 04:01:12;;;;;;;5.43;5.00;;;;;;;8.64;100.00;100429.75;4972195;28;20693;-77
2023/02/17 04:03:39;;;;;;;10.27;9.37;;;;;;;8.65;100.00;100430.53;4971992;28;20236;-77
2023/02/17 04:06:05;;;;;;;8.30;7.57;;;;;;;8.67;100.00;100422.06;4972297;28;20194;-73
2023/02/17 04:08:30;;;;;;;6.83;6.33;;;;;;;8.66;100.00;100415.81;4972087;28;20184;-75
2023/02/17 04:10:59;;;;;;;3.43;3.23;;;;;;;8.67;100.00;100422.88;4972471;28;20629;-75
2023/02/17 04:13:25;;;;;;;9.57;8.67;;;;;;;8.67;100.00;100417.44;4972015;28;20310;-76
2023/02/17 04:15:51;;;;;;;9.87;6.87;;;;;;;8.69;100.00;100417.97;4971658;28;20605;-75
2023/02/17 04:18:17;;;;;;;3.67;3.40;;;;;;;8.70;100.00;100416.88;4971843;28;20189;-77
2023/02/17 04:20:43;;;;;;;9.43;7.90;;;;;;;8.72;100.00;100417.38;4972139;28;20178;-77
2023/02/17 04:23:10;;;;;;;5.57;5.13;;;;;;;8.79;100.00;100422.41;4971802;28;20240;-76
2023/02/17 04:25:36;;;;;;;6.43;5.93;;;;;;;8.81;100.00;100418.28;4971986;28;20629;-76
2023/02/17 04:28:05;;;;;;;8.07;6.30;;;;;;;8.85;100.00;100415.78;4971802;28;20188;-75
2023/02/17 04:30:30;;;;;;;6.70;6.20;;;;;;;8.87;100.00;100408.09;4971787;28;20715;-76
2023/02/17 04:32:56;;;;;;;4.00;3.67;;;;;;;8.87;100.00;100417.09;4971712;28;20217;-76
2023/02/17 04:35:21;;;;;;;8.53;7.83;;;;;;;8.87;100.00;100411.63;4971390;28;20275;-77
2023/02/17 04:37:47;;;;;;;5.33;4.93;;;;;;;8.91;100.00;100431.72;4970538;28;20217;-76
2023/02/17 04:40:12;;;;;;;5.13;4.73;;;;;;;8.91;100.00;100426.25;4971754;28;20198;-76
2023/02/17 04:42:38;;;;;;;7.47;6.87;;;;;;;8.90;100.00;100446.44;4971730;28;20294;-76
2023/02/17 04:45:05;;;;;;;10.07;7.53;;;;;;;8.88;100.00;100437.78;4971694;28;20174;-76
2023/02/17 04:47:30;;;;;;;7.33;6.00;;;;;;;8.86;100.00;100433.75;4971536;28;20178;-76
2023/02/17 04:49:55;;;;;;;6.60;6.00;;;;;;;8.83;100.00;100443.31;4971693;28;20217;-76
2023/02/17 04:52:21;;;;;;;8.10;6.80;;;;;;;8.81;100.00;100434.63;4971710;28;20302;-74
2023/02/17 04:54:46;;;;;;;12.03;11.03;;;;;;;8.79;100.00;100428.66;4971355;28;20185;-73
2023/02/17 04:57:11;;;;;;;4.50;4.10;;;;;;;8.79;100.00;100401.41;4971727;28;20239;-75
2023/02/17 04:59:37;;;;;;;8.27;7.53;;;;;;;8.79;100.00;100395.97;4975465;28;20174;-74
2023/02/17 05:02:02;;;;;;;5.70;5.20;;;;;;;8.80;100.00;100389.41;4975477;28;20468;-75
2023/02/17 05:04:28;;;;;;;7.20;5.63;;;;;;;8.81;100.00;100392.94;4975185;28;20178;-76
2023/02/17 05:06:53;;;;;;;7.40;6.77;;;;;;;8.85;100.00;100402.97;4975445;28;20212;-75
2023/02/17 05:09:18;;;;;;;3.93;3.63;;;;;;;8.85;100.00;100391.25;4975478;28;20470;-77
2023/02/17 05:11:44;;;;;;;5.40;4.97;;;;;;;8.85;100.00;100400.25;4975350;28;20581;-73
2023/02/17 05:14:09;;;;;;;6.80;6.20;;;;;;;8.86;100.00;100399.13;4974977;28;20178;-76
2023/02/17 05:16:34;;;;;;;6.73;6.20;;;;;;;8.86;100.00;100388.22;4975098;28;20744;-75
2023/02/17 05:18:59;;;;;;;8.33;5.53;;;;;;;8.84;100.00;100379.56;4975490;28;20184;-75
2023/02/17 05:21:25;;;;;;;4.50;4.10;;;;;;;8.88;100.00;100374.31;4975176;28;20245;-75
2023/02/17 05:23:50;;;;;;;5.77;5.27;;;;;;;8.92;100.00;100381.56;4974857;28;20182;-76
2023/02/17 05:26:15;;;;;;;2.97;2.77;;;;;;;8.95;100.00;100369.25;4975057;28;20539;-69
2023/02/17 05:28:41;;;;;;;4.73;4.43;;;;;;;8.98;100.00;100368.66;4974976;28;20228;-70
2023/02/17 05:31:06;;;;;;;4.43;4.03;;;;;;;9.04;100.00;100356.53;4974941;28;20214;-73
2023/02/17 05:33:31;;;;;;;5.33;4.93;;;;;;;9.07;100.00;100371.47;4974805;28;20468;-74
2023/02/17 05:36:01;;;;;;;3.10;2.90;;;;;;;9.11;100.00;100356.97;4974568;28;20673;-77
2023/02/17 05:38:27;;;;;;;2.90;2.70;;;;;;;9.18;100.00;100354.63;4974825;28;20173;-75
2023/02/17 05:40:52;;;;;;;5.53;5.13;;;;;;;9.24;100.00;100353.38;4974903;28;20192;-76
2023/02/17 05:43:17;;;;;;;6.27;5.77;;;;;;;9.28;100.00;100350.88;4974710;28;20604;-75
2023/02/17 05:45:42;;;;;;;5.60;5.10;;;;;;;9.30;100.00;100364.22;4975034;28;20258;-74
2023/02/17 05:48:08;;;;;;;6.33;5.83;;;;;;;9.32;100.00;100362.78;4974700;28;20690;-75
2023/02/17 05:50:33;;;;;;;3.77;3.47;;;;;;;9.35;100.00;100356.72;4974650;28;20182;-75
2023/02/17 05:52:58;;;;;;;6.63;6.03;;;;;;;9.35;100.00;100358.63;4974556;28;20193;-74
2023/02/17 05:55:24;;;;;;;6.97;6.37;;;;;;;9.37;100.00;100353.69;4974372;28;20744;-76
2023/02/17 05:57:49;;;;;;;7.10;6.50;;;;;;;9.38;100.00;100361.56;4974390;28;20178;-72
2023/02/17 06:00:15;;;;;;;5.57;5.03;;;;;;;9.41;100.00;100358.25;4974453;28;20662;-74
2023/02/17 06:02:40;;;;;;;1.37;1.33;;;;;;;9.41;100.00;100360.97;4974610;28;20178;-75
2023/02/17 06:05:06;;;;;;;5.40;4.90;;;;;;;9.43;100.00;100357.94;4974162;28;20213;-74
2023/02/17 06:07:31;;;;;;;7.27;6.67;;;;;;;9.46;100.00;100357.31;4974071;28;20170;-74
2023/02/17 06:09:57;;;;;;;7.53;6.83;;;;;;;9.45;100.00;100337.41;4974208;28;20222;-76
2023/02/17 06:12:22;;;;;;;4.97;3.63;;;;;;;9.49;100.00;100354.78;4974230;28;20202;-75
2023/02/17 06:14:47;;;;;;;8.97;8.20;;;;;;;9.49;100.00;100352.03;4972533;28;20184;-76
2023/02/17 06:17:13;;;;;;;8.43;7.73;;;;;;;9.54;100.00;100351.94;4974047;28;20241;-75
2023/02/17 06:19:38;;;;;;;3.97;3.63;;;;;;;9.59;100.00;100363.84;4974196;28;20268;-75
2023/02/17 06:22:03;;;;;;;3.93;3.63;;;;;;;9.60;100.00;100357.28;4974137;28;20174;-76
2023/02/17 06:24:29;;;;;;;7.27;6.60;;;;;;;9.60;100.00;100371.72;4973708;28;20181;-75
2023/02/17 06:26:54;;;;;;;9.00;6.83;;;;;;;9.62;100.00;100360.50;4974032;28;20637;-75
2023/02/17 06:29:19;;;;;;;6.00;5.40;;;;;;;9.64;100.00;100372.72;4973796;28;20174;-76
2023/02/17 06:31:45;;;;;;;7.30;6.70;;;;;;;9.66;100.00;100366.97;4973967;28;20171;-75
2023/02/17 06:34:10;;;;;;;5.30;4.80;;;;;;;9.67;100.00;100366.66;4973499;28;20193;-74
2023/02/17 06:36:36;;;;;;;6.67;6.07;;;;;;;9.72;100.00;100376.66;4973769;28;20632;-75
2023/02/17 06:39:02;;;;;;;5.50;4.97;;;;;;;9.73;100.00;100378.28;4973760;28;20250;-76
2023/02/17 06:41:27;;;;;;;4.63;4.20;;;;;;;9.74;100.00;100368.97;4973316;28;20182;-76
2023/02/17 06:43:52;;;;;;;10.00;9.00;;;;;;;9.81;100.00;100377.53;4973461;28;20174;-75
2023/02/17 06:46:18;;;;;;;6.13;5.60;;;;;;;9.87;100.00;100375.50;4973930;28;20635;-77
2023/02/17 06:48:43;;;;;;;8.07;7.37;;;;;;;9.85;100.00;100364.91;4973548;28;20178;-76
2023/02/17 06:51:08;;;;;;;8.37;7.63;;;;;;;9.83;100.00;100351.53;4973518;28;20186;-76
2023/02/17 06:53:34;;;;;;;8.20;7.43;;;;;;;9.83;100.00;100348.00;4973923;28;20178;-73
2023/02/17 06:55:59;;;;;;;8.20;7.43;;;;;;;9.83;100.00;100337.91;4973106;28;20212;-76
2023/02/17 06:58:24;;;;;;;7.93;7.23;;;;;;;9.88;100.00;100353.38;4973777;28;20365;-75
2023/02/17 07:00:50;;;;;;;7.80;7.20;;;;;;;9.89;100.00;100354.16;4973543;28;20657;-75
2023/02/17 07:03:16;;;;;;;7.60;7.00;;;;;;;9.88;100.00;100353.38;4973317;28;20182;-74
2023/02/17 07:05:41;;;;;;;8.87;7.93;;;;;;;9.91;100.00;100343.75;4973117;28;20453;-75
2023/02/17 07:08:06;;;;;;;7.03;6.40;;;;;;;9.91;100.00;100357.38;4973260;28;20233;-74
2023/02/17 07:10:32;;;;;;;10.10;9.27;;;;;;;9.92;100.00;100343.44;4973605;28;20178;-74
2023/02/17 07:12:57;;;;;;;8.07;7.40;;;;;;;9.93;100.00;100353.22;4971852;28;20194;-74
2023/02/17 07:15:22;;;;;;;10.23;9.33;;;;;;;9.94;100.00;100357.56;4971504;28;20209;-72
2023/02/17 07:17:48;;;;;;;9.00;8.20;;;;;;;9.95;100.00;100366.56;4973064;28;20181;-75
2023/02/17 07:20:13;;;;;;;11.50;10.50;;;;;;;9.94;100.00;100373.13;4972478;28;20245;-76
2023/02/17 07:22:39;;;;;;;6.80;6.27;;;;;;;9.94;100.00;100346.66;4972997;28;20182;-75
2023/02/17 07:25:05;;;;;;;14.83;11.73;;;;;;;9.99;100.00;100341.09;4972564;28;20314;-75
2023/02/17 07:27:31;;;;;;;6.20;5.70;;;;;;;9.99;100.00;100343.03;4971525;28;20508;-75
2023/02/17 07:29:56;;;;;;;10.03;9.13;;;;;;;10.00;100.00;100339.97;4972805;28;20440;-73
2023/02/17 07:32:22;;;;;;;5.57;4.90;;;;;;;10.00;100.00;100337.25;4972795;28;20174;-75
2023/02/17 07:34:47;;;;;;;6.57;6.03;;;;;;;10.02;100.00;100335.00;4972454;28;20637;-75
2023/02/17 07:37:12;;;;;;;7.27;6.57;;;;;;;10.04;100.00;100356.53;4971363;28;20220;-72
2023/02/17 07:39:37;;;;;;;9.23;8.53;;;;;;;10.04;100.00;100345.63;4972562;28;20181;-76
2023/02/17 07:42:05;;;;;;;7.43;6.60;;;;;;;10.07;100.00;100317.69;4971110;28;20197;-75
2023/02/17 07:44:30;;;;;;;6.03;5.53;;;;;;;10.09;100.00;100299.06;4972439;28;20461;-74
2023/02/17 07:46:56;;;;;;;6.63;6.13;;;;;;;10.12;100.00;100310.16;4972821;28;20182;-76
2023/02/17 07:49:21;;;;;;;5.80;5.30;;;;;;;10.14;100.00;100302.50;4972516;28;20229;-76
2023/02/17 07:51:46;;;;;;;10.63;9.70;;;;;;;10.18;100.00;100310.88;4972371;28;20173;-75
2023/02/17 07:54:12;;;;;;;6.23;5.77;;;;;;;10.17;100.00;100306.53;4972180;28;20213;-75
2023/02/17 07:56:38;;;;;;;7.90;7.23;;;;;;;10.18;100.00;100282.75;4972273;28;20204;-75
2023/02/17 07:59:08;;;;;;;10.37;9.47;;;;;;;10.20;100.00;100278.59;4971179;28;20186;-75
2023/02/17 08:01:33;;;;;;;8.80;8.10;;;;;;;10.21;100.00;100304.81;4972641;28;20221;-74
2023/02/17 08:03:58;;;;;;;9.53;8.67;;;;;;;10.20;100.00;100294.97;4971969;28;20582;-75
2023/02/17 08:06:25;;;;;;;5.40;5.00;;;;;;;10.23;100.00;100288.91;4972149;28;20264;-75
2023/02/17 08:14:22;;;;;;;7.60;7.00;;;;;;;10.23;100.00;100277.19;4971777;28;20185;-71
2023/02/17 08:16:47;;;;;;;12.67;10.73;;;;;;;10.25;100.00;100274.94;4971900;28;20205;-71
2023/02/17 08:19:13;;;;;;;7.80;7.03;;;;;;;10.24;100.00;100260.50;4971990;28;20216;-71
2023/02/17 08:21:38;;;;;;;8.43;7.70;;;;;;;10.27;100.00;100279.00;4972013;28;20170;-70
2023/02/17 08:24:04;;;;;;;8.50;7.80;;;;;;;10.29;100.00;100281.41;4971689;28;20252;-69
2023/02/17 08:26:29;;;;;;;8.40;7.60;;;;;;;10.29;100.00;100286.88;4971929;28;20178;-70
2023/02/17 08:28:54;;;;;;;7.23;6.63;;;;;;;10.32;100.00;100284.31;4971949;28;20293;-70
2023/02/17 08:31:32;;;;;;;7.33;6.73;;;;;;;10.33;100.00;100294.13;4972162;28;20185;-70
2023/02/17 08:33:59;;;;;;;10.77;9.80;;;;;;;10.35;100.00;100283.69;4971551;28;20174;-72
2023/02/17 08:36:26;;;;;;;3.67;3.37;;;;;;;10.35;100.00;100277.41;4971664;28;20700;-70
2023/02/17 08:38:52;;;;;;;5.30;4.83;;;;;;;10.36;100.00;100284.50;4971736;28;20209;-71
2023/02/17 08:41:21;;;;;;;5.23;4.70;;;;;;;10.39;100.00;100270.19;4971276;28;20260;-71
2023/02/17 08:43:47;;;;;;;9.33;8.43;;;;;;;10.39;100.00;100251.09;4971667;28;20178;-71
2023/02/17 08:46:13;;;;;;;6.67;6.07;;;;;;;10.39;100.00;100249.16;4971898;28;20185;-71
2023/02/17 08:48:39;;;;;;;7.17;6.63;;;;;;;10.42;100.00;100247.75;4971574;28;20182;-71
2023/02/17 08:51:04;;;;;;;6.53;5.93;;;;;;;10.46;100.00;100264.31;4971597;28;20190;-70
2023/02/17 08:53:30;;;;;;;16.20;8.67;;;;;;;10.46;100.00;100246.00;4971516;28;20543;-71
2023/02/17 08:55:55;;;;;;;5.73;5.37;;;;;;;10.44;100.00;100250.97;4971242;28;20786;-70
2023/02/17 08:58:21;;;;;;;8.30;6.00;;;;;;;10.43;100.00;100238.44;4971412;28;20218;-71
2023/02/17 09:00:47;;;;;;;10.77;9.70;;;;;;;10.41;100.00;100233.28;4971648;28;20205;-70
2023/02/17 09:03:12;;;;;;;7.50;6.90;;;;;;;10.44;100.00;100240.03;4971458;28;20189;-71
2023/02/17 09:05:37;;;;;;;5.70;5.30;;;;;;;10.45;100.00;100233.44;4971287;28;20224;-70
2023/02/17 09:08:03;;;;;;;4.17;3.90;;;;;;;10.47;100.00;100233.13;4971366;28;20182;-71
2023/02/17 09:10:29;;;;;;;7.90;7.30;;;;;;;10.46;100.00;100235.06;4971346;28;20626;-72
2023/02/17 09:12:54;;;;;;;6.33;5.77;;;;;;;10.48;100.00;100224.63;4971390;28;20174;-72
2023/02/17 09:15:20;;;;;;;7.53;6.93;;;;;;;10.46;100.00;100226.88;4971278;28;20620;-72
2023/02/17 09:17:45;;;;;;;7.33;6.73;;;;;;;10.47;100.00;100212.09;4971391;28;20277;-71
2023/02/17 09:20:11;;;;;;;6.40;5.97;;;;;;;10.49;100.00;100206.31;4971323;28;20178;-70
2023/02/17 09:22:38;;;;;;;6.80;6.30;;;;;;;10.52;100.00;100203.75;4971368;28;20185;-72
2023/02/17 09:25:05;;;;;;;6.70;6.10;;;;;;;10.52;100.00;100190.09;4970956;28;20178;-72
2023/02/17 09:27:30;;;;;;;5.80;5.37;;;;;;;10.55;100.00;100200.38;4971545;28;20185;-70
2023/02/17 09:29:56;;;;;;;7.60;7.03;;;;;;;10.55;100.00;100188.63;4971307;28;20174;-70
2023/02/17 09:32:21;;;;;;;6.43;5.93;;;;;;;10.57;100.00;100200.88;4971221;28;20186;-70
2023/02/17 09:34:49;;;;;;;8.33;7.73;;;;;;;10.56;100.00;100218.41;4970856;28;20192;-70
2023/02/17 09:37:16;;;;;;;5.40;4.93;;;;;;;10.60;100.00;100205.72;4971187;28;20349;-72
2023/02/17 09:39:42;;;;;;;6.50;6.07;;;;;;;10.59;100.00;100212.28;4971113;28;20182;-74
2023/02/17 09:42:23;;;;;;;7.20;6.60;;;;;;;10.60;100.00;100211.16;4970873;28;20198;-71
2023/02/17 09:45:19;;;;;;;7.67;7.13;;;;;;;10.58;100.00;100218.06;4974480;28;20178;-71
2023/02/17 09:47:59;;;;;;;6.43;5.93;;;;;;;10.58;100.00;100201.69;4970128;28;20228;-73
2023/02/17 09:50:33;;;;;;;5.53;4.43;;;;;;;10.59;100.00;100217.75;4974773;28;20186;-74
2023/02/17 09:53:36;;;;;;;6.17;5.67;;;;;;;10.57;100.00;100200.09;4974976;28;20182;-73
2023/02/17 09:56:04;;;;;;;8.47;7.77;;;;;;;10.58;100.00;100207.94;4967787;28;20225;-75
2023/02/17 09:58:51;;;;;;;5.90;4.43;;;;;;;10.60;100.00;100204.91;4974474;28;20178;-75
2023/02/17 10:01:19;;;;;;;7.63;7.03;;;;;;;10.63;100.00;100223.38;4974832;28;20276;-73
2023/02/17 10:03:56;;;;;;;8.20;6.53;;;;;;;10.63;100.00;100196.88;4974160;28;20186;-73
2023/02/17 10:06:31;;;;;;;8.20;7.57;;;;;;;10.60;100.00;100215.84;4974394;28;20276;-72
2023/02/17 10:09:22;;;;;;;9.17;8.43;;;;;;;10.56;100.00;100226.59;4974381;28;20180;-75
2023/02/17 10:12:01;;;;;;;6.77;6.20;;;;;;;10.55;100.00;100237.81;4974674;28;20205;-71
2023/02/17 10:14:40;;;;;;;8.73;8.03;;;;;;;10.54;100.00;100219.81;4973980;28;20178;-74
2023/02/17 10:17:14;;;;;;;8.40;7.80;;;;;;;10.55;100.00;100227.69;4974127;28;20213;-73
2023/02/17 10:19:55;;;;;;;7.60;6.97;;;;;;;10.57;100.00;100211.00;4974262;28;20408;-74
2023/02/17 10:22:22;;;;;;;5.00;4.53;;;;;;;10.55;100.00;100205.03;4974196;28;20231;-76
2023/02/17 10:24:48;;;;;;;7.80;7.10;;;;;;;10.55;100.00;100232.34;4973687;28;20216;-72
2023/02/17 10:27:32;;;;;;;8.43;7.77;;;;;;;10.57;100.00;100219.19;4973908;28;20272;-74
2023/02/17 10:30:16;;;;;;;5.57;5.10;;;;;;;10.57;100.00;100200.09;4974026;28;20174;-74
2023/02/17 10:33:11;;;;;;;6.93;6.33;;;;;;;10.58;100.00;100197.03;4973952;28;20262;-74
2023/02/17 10:35:59;;;;;;;6.23;5.83;;;;;;;10.62;100.00;100167.13;4973409;28;20296;-75
2023/02/17 10:38:50;;;;;;;6.00;5.50;;;;;;;10.68;100.00;100174.84;4973849;28;20167;-71
2023/02/17 10:41:21;;;;;;;6.67;6.07;;;;;;;10.71;100.00;100165.25;4974269;28;20626;-73
2023/02/17 10:43:48;;;;;;;7.80;7.20;;;;;;;10.77;100.00;100177.63;4973420;28;20178;-73
2023/02/17 10:46:17;;;;;;;10.43;6.47;;;;;;;10.84;100.00;100188.88;4973953;28;20178;-75
2023/02/17 10:48:49;;;;;;;8.00;7.40;;;;;;;10.85;100.00;100167.81;4973645;28;20166;-76
2023/02/17 10:51:18;;;;;;;6.63;6.13;;;;;;;10.86;100.00;100161.25;4973711;28;20514;-73
2023/02/17 10:53:47;;;;;;;7.67;6.97;;;;;;;10.88;100.00;100161.72;4972788;28;20170;-75
2023/02/17 10:56:16;;;;;;;6.70;6.20;;;;;;;10.90;100.00;100143.88;4972862;28;20244;-75
2023/02/17 10:58:50;;;;;;;8.93;6.90;;;;;;;10.94;100.00;100112.03;4973675;28;20206;-72
2023/02/17 11:01:16;;;;;;;9.03;8.33;;;;;;;10.98;100.00;100143.06;4973423;28;20174;-72
2023/02/17 11:03:41;;;;;;;5.93;5.43;;;;;;;11.03;100.00;100150.31;4973264;28;20224;-74
2023/02/17 11:06:21;;;;;;;7.67;6.97;;;;;;;11.10;100.00;100136.16;4973349;28;20606;-74
2023/02/17 11:08:53;;;;;;;8.00;4.60;;;;;;;11.16;100.00;100110.25;4973167;28;20196;-72
2023/02/17 11:11:29;;;;;;;6.03;5.53;;;;;;;11.22;100.00;100117.97;4973495;28;20189;-75
2023/02/17 11:14:01;;;;;;;7.07;6.47;;;;;;;11.28;100.00;100107.66;4973030;28;20211;-72
2023/02/17 11:16:32;;;;;;;5.97;5.57;;;;;;;11.31;100.00;100096.09;4973284;28;20252;-72
2023/02/17 11:18:59;;;;;;;8.47;7.67;;;;;;;11.33;100.00;100115.72;4973110;28;20293;-71
2023/02/17 11:21:27;;;;;;;5.17;4.77;;;;;;;11.36;100.00;100100.56;4972918;28;20220;-74
2023/02/17 11:24:05;;;;;;;13.87;12.47;;;;;;;11.36;100.00;100093.16;4972743;28;20180;-74
2023/02/17 11:26:33;;;;;;;17.53;6.50;;;;;;;11.40;100.00;100085.09;4973244;28;20178;-73
2023/02/17 11:29:21;;;;;;;8.27;7.63;;;;;;;11.40;100.00;100094.13;4972860;28;20622;-73
2023/02/17 11:32:00;;;;;;;7.43;6.83;;;;;;;11.47;100.00;100110.06;4972677;28;20186;-73